Terminal Aerodrome Forecast
Issued by NWS Sterling, VA

Home | Current Version | Previous Version | Text Only | Print | Product List | Glossary On
Versions: 1 2 3 4 5 6 7 8 9 10 11 12 13
000
FTUS41 KLWX 261734
TAFCHO
TAF
KCHO 261734Z 2618/2718 02004KT P6SM BKN050
     FM270000 VRB03KT P6SM SCT050
     FM271200 33009KT P6SM SCT050=

USA.gov is the U.S. government's official web portal to all federal, state and local government web resources and services.